Terminal Aerodrome Forecast
Issued by NWS Detroit/Pontiac, MI

Home | Current Version | Previous Version | Text Only | Print | Product List | Glossary On
Versions: 1 2 3 4 5 6 7 8 9 10 11 12 13
130
FTUS43 KDTX 201401 AAA
TAFFNT
TAF AMD
KFNT 201401Z 2014/2112 26008KT P6SM SCT040 OVC200
     FM201600 25012KT P6SM BKN045
     FM202300 33005KT P6SM SCT045
     FM211000 VRB03KT 4SM BR SCT250=

USA.gov is the U.S. government's official web portal to all federal, state and local government web resources and services.